Terminal Aerodrome Forecast
Issued by NWS

Home | Current Version | Previous Version | Text Only | Print | Product List | Glossary On
Versions: 1 2 3 4 5 6 7 8 9 10 11 12 13 14 15 16 17 18 19
000
FTUS45 KABQ 221500 AAD
TAFSAF
TAF AMD
KSAF 221525Z 2215/2312 VRB04KT P6SM BKN021
     FM221600 31006KT P6SM FEW020
     FM221900 27008KT P6SM SCT090
     FM230200 36004KT P6SM FEW100=

USA.gov is the U.S. government's official web portal to all federal, state and local government web resources and services.